N712CC KISM-KLAL
Flight info
| Callsign | N712CC |
|---|---|
| Flight time | 0h 21m |
| Altitude | 2500 |
| Route | DCT |
| Aircraft | C172/L-VGD/C |
Departure
| Time | 2026-04-22 00:32 |
|---|---|
| Airport | Kissimmee Gateway Airport (KISM) |
Arrival
| Time | 2026-04-22 00:53 |
|---|---|
| Airport | Lakeland Linder International Airport (KLAL) |
| Time | Latitude | Longitude | Altitude | Speed | Heading |
|---|---|---|---|---|---|
| 2026-04-22 00:23 | 28.29356 | -81.43529 | 76 ft | 0 kts | 239° |
| 2026-04-22 00:26 | 28.29356 | -81.43530 | 76 ft | 0 kts | 238° |
| 2026-04-22 00:27 | 28.29353 | -81.43534 | 76 ft | 2 kts | 228° |
| 2026-04-22 00:27 | 28.29345 | -81.43544 | 77 ft | 1 kts | 283° |
| 2026-04-22 00:28 | 28.29347 | -81.43501 | 76 ft | 6 kts | 109° |
| 2026-04-22 00:28 | 28.29311 | -81.43505 | 77 ft | 10 kts | 237° |
| 2026-04-22 00:28 | 28.29266 | -81.43585 | 79 ft | 12 kts | 237° |
| 2026-04-22 00:28 | 28.29225 | -81.43660 | 79 ft | 7 kts | 235° |
| 2026-04-22 00:29 | 28.29192 | -81.43718 | 79 ft | 7 kts | 244° |
| 2026-04-22 00:29 | 28.29181 | -81.43740 | 79 ft | 0 kts | 240° |
| 2026-04-22 00:30 | 28.29171 | -81.43761 | 79 ft | 9 kts | 238° |
| 2026-04-22 00:30 | 28.29133 | -81.43820 | 79 ft | 2 kts | 194° |
| 2026-04-22 00:30 | 28.29122 | -81.43816 | 79 ft | 0 kts | 148° |
| 2026-04-22 00:31 | 28.29027 | -81.43750 | 79 ft | 44 kts | 146° |
| 2026-04-22 00:31 | 28.28678 | -81.43542 | 203 ft | 61 kts | 151° |
| 2026-04-22 00:31 | 28.28254 | -81.43396 | 381 ft | 65 kts | 157° |
| 2026-04-22 00:32 | 28.27777 | -81.43488 | 556 ft | 81 kts | 211° |
| 2026-04-22 00:32 | 28.27514 | -81.44126 | 707 ft | 95 kts | 251° |
| 2026-04-22 00:32 | 28.27349 | -81.44881 | 874 ft | 102 kts | 257° |
| 2026-04-22 00:32 | 28.27206 | -81.45668 | 1080 ft | 102 kts | 245° |
| 2026-04-22 00:33 | 28.26874 | -81.46373 | 1259 ft | 104 kts | 233° |
| 2026-04-22 00:33 | 28.26531 | -81.47070 | 1479 ft | 104 kts | 233° |
| 2026-04-22 00:33 | 28.26168 | -81.47807 | 1570 ft | 112 kts | 234° |
| 2026-04-22 00:33 | 28.25757 | -81.48624 | 1513 ft | 126 kts | 234° |
| 2026-04-22 00:34 | 28.25303 | -81.49507 | 1507 ft | 129 kts | 234° |
| 2026-04-22 00:34 | 28.24850 | -81.50377 | 1507 ft | 129 kts | 234° |
| 2026-04-22 00:34 | 28.24394 | -81.51256 | 1507 ft | 128 kts | 234° |
| 2026-04-22 00:34 | 28.23944 | -81.52126 | 1507 ft | 127 kts | 234° |
| 2026-04-22 00:35 | 28.23501 | -81.52986 | 1506 ft | 127 kts | 234° |
| 2026-04-22 00:35 | 28.23054 | -81.53854 | 1508 ft | 127 kts | 234° |
| 2026-04-22 00:35 | 28.22608 | -81.54716 | 1507 ft | 128 kts | 234° |
| 2026-04-22 00:35 | 28.22160 | -81.55590 | 1506 ft | 127 kts | 234° |
| 2026-04-22 00:36 | 28.21718 | -81.56460 | 1504 ft | 128 kts | 234° |
| 2026-04-22 00:36 | 28.21277 | -81.57336 | 1505 ft | 127 kts | 234° |
| 2026-04-22 00:36 | 28.20835 | -81.58215 | 1503 ft | 127 kts | 234° |
| 2026-04-22 00:36 | 28.20394 | -81.59086 | 1502 ft | 127 kts | 235° |
| 2026-04-22 00:37 | 28.19953 | -81.59958 | 1470 ft | 130 kts | 235° |
| 2026-04-22 00:37 | 28.19486 | -81.60864 | 1400 ft | 133 kts | 234° |
| 2026-04-22 00:37 | 28.19018 | -81.61762 | 1333 ft | 134 kts | 235° |
| 2026-04-22 00:37 | 28.18535 | -81.62682 | 1262 ft | 134 kts | 234° |
| 2026-04-22 00:38 | 28.18060 | -81.63590 | 1190 ft | 134 kts | 234° |
| 2026-04-22 00:38 | 28.17592 | -81.64487 | 1120 ft | 130 kts | 235° |
| 2026-04-22 00:38 | 28.17136 | -81.65362 | 1068 ft | 126 kts | 234° |
| 2026-04-22 00:38 | 28.16715 | -81.66202 | 1107 ft | 119 kts | 238° |
| 2026-04-22 00:39 | 28.16359 | -81.67028 | 1149 ft | 116 kts | 239° |
| 2026-04-22 00:39 | 28.16009 | -81.67863 | 1176 ft | 119 kts | 239° |
| 2026-04-22 00:39 | 28.15657 | -81.68736 | 1167 ft | 122 kts | 248° |
| 2026-04-22 00:39 | 28.15609 | -81.69703 | 1167 ft | 124 kts | 277° |
| 2026-04-22 00:40 | 28.15723 | -81.70659 | 1169 ft | 123 kts | 281° |
| 2026-04-22 00:40 | 28.15875 | -81.71614 | 1171 ft | 123 kts | 282° |
| 2026-04-22 00:40 | 28.16032 | -81.72578 | 1169 ft | 123 kts | 282° |
| 2026-04-22 00:40 | 28.16189 | -81.73538 | 1170 ft | 123 kts | 282° |
| 2026-04-22 00:41 | 28.16342 | -81.74487 | 1173 ft | 123 kts | 282° |
| 2026-04-22 00:41 | 28.16500 | -81.75448 | 1170 ft | 124 kts | 282° |
| 2026-04-22 00:41 | 28.16645 | -81.76411 | 1169 ft | 124 kts | 281° |
| 2026-04-22 00:41 | 28.16788 | -81.77371 | 1172 ft | 124 kts | 281° |
| 2026-04-22 00:42 | 28.16922 | -81.78344 | 1169 ft | 124 kts | 280° |
| 2026-04-22 00:42 | 28.16964 | -81.79324 | 1168 ft | 124 kts | 257° |
| 2026-04-22 00:42 | 28.16695 | -81.80232 | 1168 ft | 122 kts | 239° |
| 2026-04-22 00:42 | 28.16266 | -81.81052 | 1170 ft | 120 kts | 229° |
| 2026-04-22 00:43 | 28.15777 | -81.81820 | 1166 ft | 120 kts | 227° |
| 2026-04-22 00:43 | 28.15281 | -81.82570 | 1172 ft | 119 kts | 226° |
| 2026-04-22 00:43 | 28.14777 | -81.83324 | 1164 ft | 118 kts | 225° |
| 2026-04-22 00:43 | 28.14283 | -81.84069 | 1164 ft | 118 kts | 226° |
| 2026-04-22 00:44 | 28.13794 | -81.84808 | 1166 ft | 119 kts | 226° |
| 2026-04-22 00:44 | 28.13295 | -81.85564 | 1166 ft | 120 kts | 226° |
| 2026-04-22 00:44 | 28.12791 | -81.86330 | 1162 ft | 121 kts | 226° |
| 2026-04-22 00:44 | 28.12290 | -81.87090 | 1161 ft | 120 kts | 226° |
| 2026-04-22 00:45 | 28.11786 | -81.87854 | 1158 ft | 120 kts | 226° |
| 2026-04-22 00:45 | 28.11284 | -81.88619 | 1156 ft | 120 kts | 226° |
| 2026-04-22 00:45 | 28.10791 | -81.89373 | 1153 ft | 120 kts | 226° |
| 2026-04-22 00:45 | 28.10289 | -81.90138 | 1151 ft | 120 kts | 226° |
| 2026-04-22 00:46 | 28.09802 | -81.90906 | 1148 ft | 121 kts | 232° |
| 2026-04-22 00:46 | 28.09447 | -81.91776 | 1149 ft | 123 kts | 248° |
| 2026-04-22 00:46 | 28.09223 | -81.92712 | 1149 ft | 123 kts | 252° |
| 2026-04-22 00:46 | 28.09027 | -81.93649 | 1149 ft | 124 kts | 254° |
| 2026-04-22 00:47 | 28.08859 | -81.94606 | 1149 ft | 123 kts | 253° |
| 2026-04-22 00:47 | 28.08709 | -81.95561 | 1155 ft | 124 kts | 257° |
| 2026-04-22 00:47 | 28.08588 | -81.96531 | 1153 ft | 124 kts | 260° |
| 2026-04-22 00:47 | 28.08413 | -81.97488 | 1151 ft | 122 kts | 239° |
| 2026-04-22 00:48 | 28.07909 | -81.98241 | 1153 ft | 119 kts | 223° |
| 2026-04-22 00:48 | 28.07383 | -81.98957 | 1147 ft | 118 kts | 222° |
| 2026-04-22 00:48 | 28.06852 | -81.99676 | 1147 ft | 118 kts | 222° |
| 2026-04-22 00:48 | 28.06332 | -82.00385 | 1146 ft | 118 kts | 222° |
| 2026-04-22 00:49 | 28.05806 | -82.01102 | 1151 ft | 117 kts | 223° |
| 2026-04-22 00:49 | 28.05283 | -82.01819 | 1150 ft | 118 kts | 223° |
| 2026-04-22 00:49 | 28.04757 | -82.02535 | 1146 ft | 117 kts | 221° |
| 2026-04-22 00:49 | 28.04200 | -82.03207 | 1116 ft | 116 kts | 215° |
| 2026-04-22 00:50 | 28.03603 | -82.03810 | 1046 ft | 113 kts | 213° |
| 2026-04-22 00:50 | 28.03061 | -82.04387 | 927 ft | 99 kts | 214° |
| 2026-04-22 00:50 | 28.02551 | -82.04797 | 904 ft | 83 kts | 200° |
| 2026-04-22 00:50 | 28.02087 | -82.05138 | 900 ft | 76 kts | 199° |
| 2026-04-22 00:51 | 28.01648 | -82.05402 | 911 ft | 66 kts | 180° |
| 2026-04-22 00:51 | 28.01199 | -82.05506 | 921 ft | 68 kts | 170° |
| 2026-04-22 00:51 | 28.00714 | -82.05502 | 887 ft | 73 kts | 159° |
| 2026-04-22 00:51 | 28.00249 | -82.05398 | 842 ft | 61 kts | 159° |
| 2026-04-22 00:52 | 27.99849 | -82.05297 | 765 ft | 58 kts | 141° |
| 2026-04-22 00:52 | 27.99517 | -82.04996 | 664 ft | 61 kts | 124° |
| 2026-04-22 00:52 | 27.99277 | -82.04626 | 511 ft | 55 kts | 114° |
| 2026-04-22 00:52 | 27.99134 | -82.04227 | 408 ft | 54 kts | 103° |
| 2026-04-22 00:53 | 27.99063 | -82.03809 | 347 ft | 54 kts | 96° |
| 2026-04-22 00:53 | 27.99040 | -82.03388 | 229 ft | 54 kts | 93° |
| 2026-04-22 00:53 | 27.99036 | -82.02969 | 160 ft | 52 kts | 93° |
| 2026-04-22 00:53 | 27.99038 | -82.02580 | 142 ft | 46 kts | 90° |
| 2026-04-22 00:54 | 27.99036 | -82.02250 | 128 ft | 31 kts | 90° |
| 2026-04-22 00:54 | 27.99038 | -82.02024 | 128 ft | 32 kts | 90° |
| 2026-04-22 00:54 | 27.99038 | -82.01744 | 132 ft | 37 kts | 91° |
| 2026-04-22 00:54 | 27.99039 | -82.01517 | 132 ft | 25 kts | 89° |
| 2026-04-22 00:55 | 27.99039 | -82.01282 | 135 ft | 32 kts | 91° |
| 2026-04-22 00:55 | 27.99040 | -82.01029 | 135 ft | 28 kts | 87° |
| 2026-04-22 00:55 | 27.99010 | -82.00764 | 135 ft | 0 kts | 188° |
| 2026-04-22 00:56 | 27.99004 | -82.00766 | 135 ft | 3 kts | 187° |
| 2026-04-22 00:56 | 27.98913 | -82.00764 | 135 ft | 11 kts | 176° |
| 2026-04-22 00:56 | 27.98870 | -82.00761 | 135 ft | 5 kts | 180° |
| 2026-04-22 00:57 | 27.98866 | -82.00761 | 135 ft | 0 kts | 176° |
| 2026-04-22 00:57 | 27.98842 | -82.00759 | 135 ft | 7 kts | 176° |
| 2026-04-22 00:57 | 27.98782 | -82.00755 | 135 ft | 13 kts | 177° |
| 2026-04-22 00:57 | 27.98734 | -82.00832 | 135 ft | 19 kts | 269° |
| 2026-04-22 00:58 | 27.98734 | -82.00984 | 133 ft | 17 kts | 270° |
| 2026-04-22 00:58 | 27.98715 | -82.01105 | 133 ft | 13 kts | 222° |
| 2026-04-22 00:58 | 27.98669 | -82.01170 | 132 ft | 17 kts | 239° |
| 2026-04-22 00:58 | 27.98635 | -82.01265 | 132 ft | 0 kts | 210° |